createdAt,value
2023-03-23T16:00:07.310Z,1.10
2023-03-23T16:03:01.965Z,1.50
2023-03-23T16:05:49.374Z,1.50
2023-03-23T16:08:40.888Z,1.10
2023-03-23T16:11:31.153Z,1.30
2023-03-23T16:14:18.388Z,1.30
2023-03-23T16:17:05.994Z,1.25
2023-03-23T16:19:53.352Z,1.20
2023-03-23T16:22:41.020Z,1.10
2023-03-23T16:25:30.039Z,1.35
2023-03-23T16:28:17.562Z,1.10
2023-03-23T16:31:05.356Z,1.05
2023-03-23T16:33:52.713Z,1.45
2023-03-23T16:36:40.661Z,1.27
2023-03-23T16:39:27.920Z,1.40
2023-03-23T16:42:16.536Z,1.38
2023-03-23T16:45:03.785Z,1.40
2023-03-23T16:47:51.593Z,1.17
2023-03-23T16:50:40.049Z,1.10
2023-03-23T16:53:27.608Z,1.48
2023-03-23T16:56:15.043Z,1.25
2023-03-23T16:59:03.810Z,1.15
2023-03-23T17:01:50.972Z,1.10
2023-03-23T17:04:43.224Z,0.88
2023-03-23T17:07:31.297Z,1.17
2023-03-23T17:10:19.462Z,1.10
2023-03-23T17:13:07.421Z,1.30
2023-03-23T17:15:57.355Z,1.30
2023-03-23T17:18:44.609Z,1.55
2023-03-23T17:21:32.905Z,1.40
2023-03-23T17:24:21.225Z,1.35
2023-03-23T17:27:08.936Z,1.55
2023-03-23T17:29:56.491Z,1.30
2023-03-23T17:32:47.390Z,1.48
2023-03-23T17:35:34.831Z,2.47
2023-03-23T17:38:22.060Z,2.10
2023-03-23T17:41:11.322Z,1.77
2023-03-23T17:43:58.762Z,1.45
2023-03-23T17:46:46.889Z,1.58
2023-03-23T17:49:36.084Z,1.27
2023-03-23T17:52:23.170Z,1.35
2023-03-23T17:55:11.303Z,1.25
2023-03-23T17:57:58.906Z,1.35
2023-03-23T18:00:46.683Z,1.50
2023-03-23T18:03:34.316Z,1.38
2023-03-23T18:06:23.031Z,1.20
2023-03-23T18:09:10.916Z,1.13
2023-03-23T18:11:58.117Z,1.20
2023-03-23T18:14:45.887Z,1.20
2023-03-23T18:17:33.291Z,1.42
2023-03-23T18:20:21.690Z,1.50
2023-03-23T18:23:10.459Z,1.70
2023-03-23T18:25:57.986Z,2.13
2023-03-23T18:28:45.419Z,1.77
2023-03-23T18:31:32.845Z,1.60
2023-03-23T18:34:20.449Z,1.63
2023-03-23T18:37:07.684Z,1.63
2023-03-23T18:39:56.902Z,1.85
2023-03-23T18:42:44.895Z,1.58
2023-03-23T18:45:33.576Z,1.55
2023-03-23T18:48:21.289Z,1.70
2023-03-23T18:51:09.057Z,1.90
2023-03-23T18:53:56.489Z,2.00
2023-03-23T18:56:45.583Z,1.67
2023-03-23T18:59:34.481Z,4.97
2023-03-23T19:02:22.243Z,2.17
2023-03-23T19:05:10.945Z,2.03
2023-03-23T19:07:58.283Z,1.73
2023-03-23T19:10:45.593Z,2.28
2023-03-23T19:13:36.970Z,1.70
2023-03-23T19:16:25.128Z,1.90
2023-03-23T19:19:12.708Z,1.75
2023-03-23T19:22:00.206Z,1.90
2023-03-23T19:24:47.544Z,2.15
2023-03-23T19:30:25.995Z,2.67
2023-03-23T19:33:13.733Z,2.80
2023-03-23T19:36:10.341Z,2.97
2023-03-23T19:39:02.645Z,2.80
2023-03-23T19:41:50.852Z,3.03
2023-03-23T19:44:38.259Z,2.67
2023-03-23T19:47:27.059Z,2.70
2023-03-23T19:50:14.536Z,3.17
2023-03-23T19:53:02.017Z,2.92
2023-03-23T19:55:49.639Z,3.22
2023-03-23T19:58:37.317Z,2.80
2023-03-23T20:01:24.663Z,2.80
2023-03-23T20:04:14.066Z,2.55
2023-03-23T20:07:01.130Z,2.50
2023-03-23T20:09:48.653Z,2.72
2023-03-23T20:12:36.728Z,2.67
2023-03-23T20:15:25.228Z,2.63
2023-03-23T20:18:14.561Z,2.53
2023-03-23T20:21:03.921Z,2.45
2023-03-23T20:23:52.939Z,2.67
2023-03-23T20:26:44.424Z,3.00
2023-03-23T20:29:33.610Z,2.40
2023-03-23T20:32:21.266Z,2.67
2023-03-23T20:35:10.605Z,3.13
2023-03-23T20:38:00.188Z,2.42
2023-03-23T20:40:48.024Z,2.30
2023-03-23T20:43:35.641Z,2.58
2023-03-23T20:46:23.449Z,2.85
2023-03-23T20:49:10.737Z,2.92
2023-03-23T20:51:58.493Z,3.08
2023-03-23T20:54:47.487Z,3.00
2023-03-23T20:57:35.329Z,2.83
2023-03-23T21:00:22.610Z,2.67
2023-03-23T21:03:11.880Z,2.50
2023-03-23T21:05:59.604Z,2.70
2023-03-23T21:08:47.611Z,2.55
2023-03-23T21:11:36.375Z,2.67
2023-03-23T21:14:23.510Z,2.70
2023-03-23T21:17:11.181Z,2.65
2023-03-23T21:19:58.685Z,2.95
2023-03-23T21:22:46.190Z,3.28
2023-03-23T21:25:35.361Z,3.33
2023-03-23T21:28:24.142Z,2.92
2023-03-23T21:31:12.371Z,3.53
2023-03-23T21:34:00.410Z,3.30
2023-03-23T21:36:47.651Z,3.42
2023-03-23T21:39:35.607Z,3.83
2023-03-23T21:42:29.998Z,3.08
2023-03-23T21:45:20.963Z,3.10
2023-03-23T21:48:09.161Z,3.03
2023-03-23T21:50:56.623Z,2.90
2023-03-23T21:53:43.952Z,2.85
2023-03-23T21:56:31.707Z,3.20
2023-03-23T21:59:19.311Z,3.20
2023-03-23T22:02:10.927Z,3.20
2023-03-23T22:04:58.792Z,3.30
2023-03-23T22:07:46.325Z,3.15
2023-03-23T22:10:34.039Z,3.10
2023-03-23T22:13:21.802Z,3.67
2023-03-23T22:16:11.240Z,3.03
2023-03-23T22:19:02.122Z,3.05
2023-03-23T22:21:49.729Z,3.20
2023-03-23T22:24:37.124Z,2.73
2023-03-23T22:27:24.556Z,2.93
2023-03-23T22:30:12.719Z,3.10
2023-03-23T22:33:00.959Z,3.80
2023-03-23T22:35:51.229Z,3.20
2023-03-23T22:38:40.146Z,2.80
2023-03-23T22:41:29.724Z,2.47
2023-03-23T22:44:19.314Z,2.80
2023-03-23T22:47:06.661Z,2.80
2023-03-23T22:49:54.266Z,2.60
2023-03-23T22:52:43.286Z,3.03
2023-03-23T22:55:30.626Z,2.70
2023-03-23T22:58:18.794Z,2.70
2023-03-23T23:01:08.434Z,2.77
2023-03-23T23:03:56.316Z,3.10
2023-03-23T23:06:43.760Z,2.88
2023-03-23T23:09:32.683Z,2.60
2023-03-23T23:12:21.666Z,3.37
2023-03-23T23:15:12.569Z,2.80
2023-03-23T23:18:00.250Z,2.87
2023-03-23T23:20:50.435Z,2.77
2023-03-23T23:23:38.062Z,2.43
2023-03-23T23:26:27.469Z,2.53
2023-03-23T23:29:15.593Z,2.67
2023-03-23T23:32:03.523Z,2.50
2023-03-23T23:34:53.002Z,2.23
2023-03-23T23:37:41.010Z,2.37
2023-03-23T23:40:28.522Z,2.43
2023-03-23T23:43:18.173Z,2.70
2023-03-23T23:46:05.812Z,2.93
2023-03-23T23:48:53.454Z,2.17
2023-03-23T23:51:41.223Z,2.23
2023-03-23T23:54:30.684Z,2.50
2023-03-23T23:57:18.460Z,2.00
